createdAt,value
2023-05-23T00:29:17.750Z,8.75
2023-05-23T01:29:45.228Z,11.80
2023-05-23T01:59:48.207Z,11.07
2023-05-23T02:29:51.670Z,10.53
2023-05-23T02:59:54.554Z,11.43
2023-05-23T03:29:58.214Z,11.50
2023-05-23T04:00:01.161Z,11.03
2023-05-23T04:30:04.867Z,14.75
2023-05-23T05:00:07.880Z,15.00
2023-05-23T05:30:11.430Z,12.97
2023-05-23T06:00:14.338Z,11.03
2023-05-23T06:30:18.081Z,14.57
2023-05-23T07:00:21.311Z,14.80
2023-05-23T07:30:26.156Z,12.40
2023-05-23T08:00:29.292Z,12.47
2023-05-23T08:30:33.035Z,7.30
2023-05-23T09:00:36.047Z,7.97
2023-05-23T09:30:40.592Z,7.03
2023-05-23T10:00:44.243Z,7.17
2023-05-23T10:30:48.226Z,7.57
2023-05-23T11:00:51.241Z,7.87
2023-05-23T11:30:55.981Z,8.40
2023-05-23T12:00:59.010Z,8.30
2023-05-23T12:31:03.204Z,10.47
2023-05-23T13:01:06.165Z,11.27
2023-05-23T14:01:30.371Z,14.05
2023-05-23T14:31:34.227Z,9.87
2023-05-23T15:01:39.786Z,10.80
2023-05-23T15:31:44.808Z,9.15
2023-05-23T16:01:47.949Z,10.93
2023-05-23T16:31:52.090Z,13.17
2023-05-23T17:01:55.220Z,11.00
2023-05-23T17:31:59.032Z,14.27
2023-05-23T18:02:02.224Z,13.17
2023-05-23T18:32:07.053Z,12.20
2023-05-23T19:02:10.133Z,16.57
2023-05-23T19:32:14.003Z,15.35
2023-05-23T20:02:17.388Z,17.47
2023-05-23T20:32:20.677Z,15.97
2023-05-23T21:02:23.800Z,18.53
2023-05-23T21:32:27.839Z,17.17
2023-05-23T22:02:31.049Z,15.90
2023-05-23T22:32:34.705Z,15.80
2023-05-23T23:02:38.319Z,18.73
2023-05-23T23:32:41.793Z,15.10
